createdAt,value
2023-03-14T00:54:02.522Z,24.81
2023-03-14T00:55:02.387Z,24.79
2023-03-14T00:57:02.298Z,24.82
2023-03-14T00:58:02.356Z,24.83
2023-03-14T00:59:02.191Z,24.85
2023-03-14T01:02:01.951Z,24.86
2023-03-14T01:04:01.844Z,24.78
2023-03-14T01:05:01.789Z,24.86
2023-03-14T01:11:01.791Z,24.85
2023-03-14T01:12:01.864Z,24.86
2023-03-14T01:14:01.957Z,24.89
2023-03-14T01:31:01.901Z,24.90
2023-03-14T01:56:58.507Z,24.89
2023-03-14T01:59:58.300Z,24.93
2023-03-14T02:00:58.373Z,24.92
2023-03-14T02:01:58.374Z,24.92
2023-03-14T02:03:58.071Z,24.92
2023-03-14T02:05:57.916Z,24.95
2023-03-14T02:06:57.876Z,24.93
2023-03-14T02:07:57.790Z,24.96
2023-03-14T02:11:57.873Z,24.96
2023-03-14T02:12:57.483Z,25.02
2023-03-14T02:14:57.363Z,24.93
2023-03-14T02:15:57.288Z,24.98
2023-03-14T02:16:58.169Z,24.96
2023-03-14T02:17:57.151Z,24.93
2023-03-14T02:19:57.949Z,24.94
2023-03-14T02:20:57.072Z,24.98
2023-03-14T02:21:57.024Z,24.98
2023-03-14T02:22:57.358Z,24.95
2023-03-14T02:23:56.920Z,24.99
2023-03-14T02:25:56.746Z,24.96
2023-03-14T02:26:56.704Z,24.98
2023-03-14T02:27:56.580Z,24.98
2023-03-14T02:28:56.445Z,24.96
2023-03-14T02:29:56.510Z,24.96
2023-03-14T02:30:57.310Z,24.96
2023-03-14T02:31:56.394Z,25.02
2023-03-14T02:32:56.342Z,24.98
2023-03-14T02:33:56.124Z,25.02
2023-03-14T02:35:01.870Z,25.02
2023-03-14T02:35:56.895Z,25.02
2023-03-14T02:36:55.981Z,25.02
2023-03-14T02:37:56.342Z,25.02
2023-03-14T02:38:56.136Z,25.02
2023-03-14T02:39:55.734Z,25.05
2023-03-14T02:40:55.644Z,24.99
2023-03-14T02:41:55.601Z,24.93
2023-03-14T02:42:55.830Z,24.92
2023-03-14T02:43:55.424Z,24.87
2023-03-14T02:44:55.478Z,24.83
2023-03-14T02:45:55.421Z,24.76
2023-03-14T02:47:55.294Z,24.75
2023-03-14T02:48:55.167Z,24.77
2023-03-14T02:49:55.228Z,24.84
2023-03-14T02:50:55.074Z,24.79
2023-03-14T02:51:54.989Z,24.82
2023-03-14T02:52:56.887Z,24.80
2023-03-14T02:54:15.830Z,24.84
2023-03-14T02:54:54.786Z,24.77
2023-03-14T02:55:56.364Z,24.77
2023-03-14T02:56:55.306Z,24.77
2023-03-14T02:57:54.681Z,24.82
2023-03-14T02:58:54.540Z,24.87
2023-03-14T02:59:54.808Z,24.79
2023-03-14T03:00:54.456Z,24.83
2023-03-14T03:01:54.404Z,24.83
2023-03-14T03:02:54.323Z,24.86
2023-03-14T03:03:54.339Z,24.93
2023-03-14T03:04:54.202Z,24.93
2023-03-14T03:05:54.125Z,24.87
2023-03-14T03:06:54.332Z,24.94
2023-03-14T03:07:54.071Z,24.87
2023-03-14T03:08:53.963Z,24.91
2023-03-14T03:09:54.957Z,24.95
2023-03-14T03:10:53.833Z,24.95
2023-03-14T03:11:53.772Z,25.00
2023-03-14T03:12:53.866Z,24.98
2023-03-14T03:13:53.963Z,24.96
2023-03-14T03:14:53.598Z,24.93
2023-03-14T03:15:53.675Z,24.96
2023-03-14T03:16:54.355Z,25.07
2023-03-14T03:17:53.898Z,25.05
2023-03-14T03:18:53.381Z,25.04
2023-03-14T03:19:53.442Z,25.10
2023-03-14T03:20:53.308Z,25.04
2023-03-14T03:21:53.820Z,25.08
2023-03-14T03:22:53.238Z,25.08
2023-03-14T03:23:53.207Z,25.11
2023-03-14T03:24:53.192Z,25.18
2023-03-14T03:25:53.826Z,25.19
2023-03-14T03:26:54.848Z,25.24
2023-03-14T03:27:53.013Z,25.18
2023-03-14T03:28:52.919Z,25.17
2023-03-14T03:29:52.928Z,25.19
2023-03-14T03:30:52.963Z,25.13
2023-03-14T03:31:54.352Z,25.17
2023-03-14T03:32:52.768Z,25.17
2023-03-14T03:33:52.702Z,25.23
2023-03-14T03:34:52.824Z,25.24
2023-03-14T03:35:52.542Z,25.14
2023-03-14T03:36:53.345Z,25.15
2023-03-14T03:37:52.434Z,25.31
2023-03-14T03:38:52.840Z,25.27
2023-03-14T03:39:52.886Z,25.25
2023-03-14T03:40:52.314Z,25.25
2023-03-14T03:41:52.193Z,25.28
2023-03-14T03:42:53.887Z,25.36
2023-03-14T03:43:52.057Z,25.41
2023-03-14T03:44:52.125Z,25.42
2023-03-14T03:45:52.061Z,25.45
2023-03-14T03:46:53.906Z,25.36
2023-03-14T03:47:51.925Z,25.35
2023-03-14T03:48:52.336Z,25.34
2023-03-14T03:49:51.765Z,25.29
2023-03-14T03:51:52.358Z,25.36
2023-03-14T03:52:52.336Z,25.43
2023-03-14T03:53:51.908Z,25.37
2023-03-14T03:54:52.341Z,25.37
2023-03-14T03:56:52.474Z,25.43
2023-03-14T03:57:51.838Z,25.37
2023-03-14T04:00:52.862Z,25.37
2023-03-14T04:17:52.862Z,25.46
2023-03-14T04:18:53.347Z,25.56
2023-03-14T04:27:53.535Z,25.56
2023-03-14T07:00:42.061Z,33.87
2023-03-14T07:04:41.963Z,33.79
2023-03-14T07:12:41.972Z,33.35
2023-03-14T07:13:41.164Z,33.18
2023-03-14T07:14:41.970Z,33.05
2023-03-14T07:15:40.997Z,32.87
2023-03-14T07:16:40.929Z,32.91
2023-03-14T07:18:40.952Z,32.70
2023-03-14T07:19:42.458Z,32.51
2023-03-14T07:20:40.727Z,32.51
2023-03-14T07:21:40.560Z,32.43
2023-03-14T07:22:40.684Z,32.47
2023-03-14T07:23:40.628Z,32.35
2023-03-14T07:24:40.368Z,32.32
2023-03-14T07:25:40.335Z,32.36
2023-03-14T07:26:41.028Z,32.16
2023-03-14T07:28:41.893Z,32.16
2023-03-14T07:29:40.279Z,31.99
2023-03-14T07:30:39.995Z,32.05
2023-03-14T07:31:39.891Z,31.86
2023-03-14T07:32:39.964Z,31.92
2023-03-14T07:33:39.772Z,31.85
2023-03-14T07:34:39.712Z,31.87
2023-03-14T07:35:40.472Z,31.91
2023-03-14T07:36:40.475Z,31.82
2023-03-14T07:37:39.562Z,31.81
2023-03-14T07:38:39.804Z,31.71
2023-03-14T07:39:39.366Z,31.80
2023-03-14T07:40:39.740Z,31.75
2023-03-14T07:41:39.247Z,31.64
2023-03-14T07:42:39.307Z,31.67
2023-03-14T07:43:39.252Z,31.28
2023-03-14T07:44:39.022Z,29.34
2023-03-14T07:45:42.952Z,27.96
2023-03-14T07:46:39.001Z,27.33
2023-03-14T07:47:38.993Z,27.69
2023-03-14T07:48:38.797Z,28.45
2023-03-14T07:49:39.482Z,28.69
2023-03-14T07:50:38.667Z,29.07
2023-03-14T07:51:38.596Z,29.21
2023-03-14T07:52:38.632Z,29.40
2023-03-14T07:53:38.459Z,29.41
2023-03-14T07:54:38.456Z,29.50
2023-03-14T07:55:38.987Z,29.83
2023-03-14T07:56:39.313Z,29.91
2023-03-14T07:57:38.204Z,29.91
2023-03-14T07:58:38.367Z,29.90
2023-03-14T07:59:38.104Z,29.88
2023-03-14T08:00:38.069Z,29.97
2023-03-14T08:01:38.977Z,29.97
2023-03-14T08:02:37.932Z,30.15
2023-03-14T08:03:38.091Z,30.13
2023-03-14T08:04:37.742Z,30.14
2023-03-14T08:05:37.710Z,30.15
2023-03-14T08:06:37.605Z,30.24
2023-03-14T08:07:37.509Z,30.36
2023-03-14T08:08:37.535Z,30.29
2023-03-14T08:09:37.396Z,30.26
2023-03-14T08:10:37.432Z,30.26
2023-03-14T08:11:38.970Z,30.26
2023-03-14T08:12:37.944Z,30.26
2023-03-14T08:13:37.168Z,30.29
2023-03-14T08:14:38.471Z,30.51
2023-03-14T08:15:39.006Z,30.53
2023-03-14T08:17:37.002Z,30.44
2023-03-14T08:18:38.543Z,30.46
2023-03-14T08:19:37.559Z,30.40
2023-03-14T08:20:37.460Z,30.52
2023-03-14T08:21:36.737Z,30.55
2023-03-14T08:22:38.454Z,30.56
2023-03-14T08:23:37.125Z,30.55
2023-03-14T08:24:36.557Z,30.59
2023-03-14T08:25:37.241Z,30.64
2023-03-14T08:26:37.469Z,30.67
2023-03-14T08:27:36.469Z,30.71
2023-03-14T08:28:36.422Z,30.71
2023-03-14T08:29:36.323Z,30.69
2023-03-14T08:30:36.317Z,30.65
2023-03-14T08:31:36.267Z,30.67
2023-03-14T08:32:37.064Z,30.63
2023-03-14T08:33:36.089Z,30.60
2023-03-14T08:34:35.984Z,30.63
2023-03-14T08:35:35.938Z,30.74
2023-03-14T08:36:35.994Z,30.67
2023-03-14T08:37:35.837Z,30.47
2023-03-14T08:38:37.574Z,30.26
2023-03-14T08:39:35.715Z,30.08
2023-03-14T08:40:35.740Z,29.66
2023-03-14T08:41:35.644Z,29.54
2023-03-14T08:42:35.557Z,29.54
2023-03-14T08:43:35.527Z,29.45
2023-03-14T08:44:35.405Z,29.35
2023-03-14T08:45:35.293Z,29.19
2023-03-14T08:46:35.329Z,29.10
2023-03-14T08:47:35.447Z,28.95
2023-03-14T08:48:35.148Z,28.96
2023-03-14T08:49:35.119Z,28.83
2023-03-14T08:50:35.042Z,28.75
2023-03-14T08:51:34.978Z,28.72
2023-03-14T08:52:34.939Z,28.68
2023-03-14T08:53:36.144Z,28.51
2023-03-14T08:54:34.740Z,28.48
2023-03-14T08:55:34.700Z,28.39
2023-03-14T08:56:34.810Z,28.41
2023-03-14T08:57:34.573Z,28.20
2023-03-14T08:58:34.503Z,28.19
2023-03-14T08:59:34.487Z,28.08
2023-03-14T09:00:34.610Z,28.08
2023-03-14T09:01:34.442Z,28.02
2023-03-14T09:02:34.355Z,27.99
2023-03-14T09:03:34.244Z,27.99
2023-03-14T09:04:34.589Z,27.95
2023-03-14T09:05:34.072Z,27.92
2023-03-14T09:06:34.930Z,27.87
2023-03-14T09:07:34.029Z,27.86
2023-03-14T09:08:38.209Z,27.82
2023-03-14T09:09:33.905Z,27.77
2023-03-14T09:10:33.848Z,27.71
2023-03-14T09:11:33.749Z,27.69
2023-03-14T09:12:35.532Z,27.65
2023-03-14T09:13:33.775Z,27.66
2023-03-14T09:14:34.444Z,27.62
2023-03-14T09:15:33.516Z,27.56
2023-03-14T09:16:33.463Z,27.52
2023-03-14T09:17:33.534Z,27.50
2023-03-14T09:18:33.360Z,27.18
2023-03-14T09:19:33.368Z,26.63
2023-03-14T09:20:33.260Z,26.63
2023-03-14T09:21:33.151Z,26.40
2023-03-14T09:22:33.169Z,26.41
2023-03-14T09:23:33.050Z,26.20
2023-03-14T09:24:32.998Z,26.20
2023-03-14T09:25:33.666Z,26.10
2023-03-14T09:26:32.891Z,26.14
2023-03-14T09:27:32.894Z,26.18
2023-03-14T09:28:32.794Z,26.06
2023-03-14T09:29:32.797Z,25.97
2023-03-14T09:30:32.706Z,25.88
2023-03-14T09:31:33.241Z,26.02
2023-03-14T09:32:32.849Z,26.18
2023-03-14T09:33:32.625Z,25.96
2023-03-14T09:34:36.761Z,25.81
2023-03-14T09:36:32.380Z,26.07
2023-03-14T09:37:32.322Z,25.93
2023-03-14T09:38:33.638Z,25.98
2023-03-14T09:39:32.218Z,26.13
2023-03-14T09:40:32.177Z,26.11
2023-03-14T09:41:32.151Z,26.16
2023-03-14T09:42:32.171Z,26.15
2023-03-14T09:43:31.982Z,26.10
2023-03-14T09:44:31.947Z,26.27
2023-03-14T09:45:31.976Z,26.39
2023-03-14T09:46:31.840Z,26.33
2023-03-14T09:47:31.745Z,26.43
2023-03-14T10:10:30.588Z,26.38
2023-03-14T10:11:32.962Z,26.30
2023-03-14T10:12:30.551Z,26.45
2023-03-14T10:13:30.484Z,26.28
2023-03-14T10:14:30.455Z,26.26
2023-03-14T10:16:30.408Z,26.24
2023-03-14T10:17:30.316Z,26.16
2023-03-14T10:18:30.217Z,26.13
2023-03-14T10:19:30.239Z,26.11
2023-03-14T10:20:30.249Z,26.27
2023-03-14T10:21:30.227Z,26.54
2023-03-14T10:22:30.240Z,26.54
2023-03-14T10:53:29.919Z,26.95
2023-03-14T11:23:28.772Z,30.05
2023-03-14T12:17:26.263Z,28.81
2023-03-14T12:37:25.313Z,27.69
2023-03-14T12:38:25.225Z,27.61
2023-03-14T12:39:25.238Z,27.59
2023-03-14T12:40:25.112Z,27.56
2023-03-14T12:41:25.069Z,27.54
2023-03-14T12:42:32.468Z,27.50
2023-03-14T12:44:24.913Z,27.37
2023-03-14T12:45:24.826Z,27.27
2023-03-14T12:46:24.860Z,27.35
2023-03-14T12:47:24.749Z,27.41
2023-03-14T12:48:24.686Z,27.30
2023-03-14T12:49:24.618Z,27.31
2023-03-14T12:50:24.590Z,27.40
2023-03-14T12:51:24.538Z,27.33
2023-03-14T12:52:24.423Z,27.28
2023-03-14T12:53:24.434Z,27.37
2023-03-14T12:54:24.325Z,27.26
2023-03-14T12:55:24.311Z,27.23
2023-03-14T12:56:24.192Z,27.36
2023-03-14T12:57:24.162Z,27.26
2023-03-14T12:58:24.118Z,27.39
2023-03-14T12:59:24.255Z,27.15
2023-03-14T13:00:24.022Z,27.27
2023-03-14T13:01:24.163Z,27.41
2023-03-14T13:02:23.889Z,27.25
2023-03-14T13:03:23.854Z,27.36
2023-03-14T13:04:32.693Z,27.33
2023-03-14T13:06:23.710Z,27.44
2023-03-14T13:07:23.671Z,27.57
2023-03-14T13:08:23.640Z,27.54
2023-03-14T13:09:23.549Z,27.50
2023-03-14T13:10:23.537Z,27.54
2023-03-14T13:11:23.445Z,27.44
2023-03-14T13:12:23.406Z,27.52
2023-03-14T13:13:23.348Z,27.53
2023-03-14T13:14:23.388Z,27.49
2023-03-14T13:15:23.260Z,27.54
2023-03-14T13:16:23.281Z,27.52
2023-03-14T13:17:34.518Z,27.93
2023-03-14T13:19:23.110Z,28.03
2023-03-14T13:20:23.326Z,28.32
2023-03-14T13:21:22.940Z,28.90
2023-03-14T13:22:22.907Z,29.91
2023-03-14T13:23:22.868Z,30.68
2023-03-14T13:24:23.662Z,31.14
2023-03-14T13:25:23.606Z,31.36
2023-03-14T13:26:22.673Z,31.27
2023-03-14T13:27:22.645Z,31.20
2023-03-14T13:28:22.642Z,31.17
2023-03-14T13:29:22.523Z,31.07
2023-03-14T13:30:22.453Z,31.07
2023-03-14T13:31:22.482Z,31.09
2023-03-14T13:32:22.444Z,31.00
2023-03-14T13:33:22.369Z,30.94
2023-03-14T13:34:22.276Z,30.81
2023-03-14T13:35:22.336Z,30.73
2023-03-14T13:36:22.125Z,30.67
2023-03-14T13:37:22.091Z,30.68
2023-03-14T13:38:22.020Z,30.58
2023-03-14T13:39:21.942Z,30.48
2023-03-14T13:40:21.958Z,30.53
2023-03-14T13:41:21.853Z,30.42
2023-03-14T13:42:22.579Z,30.36
2023-03-14T13:43:21.712Z,30.34
2023-03-14T13:44:22.188Z,30.25
2023-03-14T13:45:21.643Z,30.18
2023-03-14T13:46:21.651Z,30.15
2023-03-14T13:47:21.522Z,29.98
2023-03-14T13:48:21.520Z,29.98
2023-03-14T13:49:21.440Z,29.99
2023-03-14T13:50:21.413Z,29.85
2023-03-14T13:51:21.346Z,29.91
2023-03-14T13:52:22.109Z,29.92
2023-03-14T13:53:21.262Z,29.86
2023-03-14T13:54:21.172Z,29.82
2023-03-14T13:55:21.210Z,29.82
2023-03-14T13:56:21.064Z,29.82
2023-03-14T13:57:21.010Z,29.83
2023-03-14T13:58:20.948Z,29.89
2023-03-14T13:59:20.905Z,29.83
2023-03-14T14:00:20.889Z,29.81
2023-03-14T14:01:21.043Z,29.77
2023-03-14T14:02:20.713Z,29.80
2023-03-14T14:03:20.677Z,29.79
2023-03-14T14:04:20.665Z,29.78
2023-03-14T14:05:20.571Z,29.77
2023-03-14T14:06:20.663Z,29.78
2023-03-14T14:07:20.491Z,29.79
2023-03-14T14:08:20.410Z,29.75
2023-03-14T14:09:20.941Z,29.78
2023-03-14T14:10:20.305Z,29.78
2023-03-14T14:11:20.270Z,29.81
2023-03-14T14:12:20.187Z,29.78
2023-03-14T14:13:20.194Z,29.78
2023-03-14T14:14:20.197Z,29.75
2023-03-14T14:15:20.032Z,29.73
2023-03-14T14:16:20.166Z,29.72
2023-03-14T14:17:19.982Z,29.72
2023-03-14T14:18:19.866Z,29.72
2023-03-14T14:19:19.795Z,29.70
2023-03-14T14:20:19.773Z,29.68
2023-03-14T14:21:19.741Z,29.70
2023-03-14T14:22:19.729Z,29.71
2023-03-14T14:23:19.591Z,29.69
2023-03-14T14:24:19.557Z,29.66
2023-03-14T14:25:19.530Z,29.67
2023-03-14T14:26:19.436Z,29.69
2023-03-14T14:27:19.372Z,29.63
2023-03-14T14:28:19.310Z,29.63
2023-03-14T14:29:19.310Z,29.63
2023-03-14T14:30:19.276Z,29.57
2023-03-14T14:31:19.204Z,29.55
2023-03-14T14:32:19.085Z,29.57
2023-03-14T14:33:19.050Z,29.57
2023-03-14T14:34:19.001Z,29.56
2023-03-14T14:35:18.924Z,29.49
2023-03-14T14:36:18.871Z,29.45
2023-03-14T14:37:18.810Z,29.48
2023-03-14T14:38:18.776Z,29.49
2023-03-14T14:39:18.700Z,29.47
2023-03-14T14:40:18.660Z,29.44
2023-03-14T14:41:20.183Z,29.41
2023-03-14T14:42:18.544Z,29.47
2023-03-14T14:43:18.477Z,29.41
2023-03-14T14:44:18.434Z,29.37
2023-03-14T14:45:18.377Z,29.40
2023-03-14T14:46:18.395Z,29.37
2023-03-14T14:47:18.281Z,29.34
2023-03-14T14:48:18.206Z,29.37
2023-03-14T14:49:18.146Z,29.35
2023-03-14T14:50:19.226Z,29.37
2023-03-14T14:51:18.051Z,29.33
2023-03-14T14:52:18.028Z,29.28
2023-03-14T14:53:18.002Z,29.32
2023-03-14T14:54:17.903Z,29.31
2023-03-14T14:55:17.872Z,29.33
2023-03-14T14:56:17.811Z,29.28
2023-03-14T14:57:17.888Z,29.31
2023-03-14T14:58:17.713Z,29.30
2023-03-14T14:59:17.636Z,29.26
2023-03-14T15:00:17.613Z,29.24
2023-03-14T15:01:17.689Z,29.18
2023-03-14T15:02:17.542Z,29.31
2023-03-14T15:03:17.458Z,29.23
2023-03-14T15:04:17.420Z,29.20
2023-03-14T15:05:17.299Z,29.20
2023-03-14T15:06:17.254Z,29.17
2023-03-14T15:07:17.223Z,29.12
2023-03-14T15:08:17.121Z,29.14
2023-03-14T15:09:17.053Z,29.10
2023-03-14T15:10:17.018Z,29.16
2023-03-14T15:11:17.597Z,29.11
2023-03-14T15:12:16.924Z,29.16
2023-03-14T15:13:16.876Z,29.12
2023-03-14T15:14:16.793Z,29.10
2023-03-14T15:15:16.758Z,29.13
2023-03-14T15:16:16.794Z,29.12
2023-03-14T15:17:16.636Z,29.07
2023-03-14T15:18:16.616Z,29.08
2023-03-14T15:19:24.121Z,29.03
2023-03-14T15:20:17.746Z,29.06
2023-03-14T15:21:16.455Z,29.04
2023-03-14T15:22:16.423Z,29.07
2023-03-14T15:23:16.390Z,29.06
2023-03-14T15:24:16.892Z,29.06
2023-03-14T15:25:37.331Z,29.03
2023-03-14T15:26:16.191Z,29.03
2023-03-14T15:27:16.095Z,29.01
2023-03-14T15:28:16.147Z,29.01
2023-03-14T15:29:16.010Z,29.00
2023-03-14T15:30:15.970Z,29.03
2023-03-14T15:31:16.697Z,29.00
2023-03-14T15:32:15.891Z,29.01
2023-03-14T15:33:15.808Z,29.03
2023-03-14T15:34:15.741Z,29.03
2023-03-14T15:35:17.774Z,29.00
2023-03-14T15:36:15.693Z,28.98
2023-03-14T15:37:16.617Z,28.99
2023-03-14T15:38:15.611Z,28.99
2023-03-14T15:39:15.498Z,28.98
2023-03-14T15:40:15.471Z,28.99
2023-03-14T15:41:15.397Z,28.98
2023-03-14T15:42:15.565Z,29.01
2023-03-14T15:43:15.278Z,28.94
2023-03-14T15:44:15.244Z,29.03
2023-03-14T15:45:15.272Z,28.98
2023-03-14T15:46:15.433Z,28.92
2023-03-14T15:47:15.313Z,28.97
2023-03-14T15:48:15.292Z,28.94
2023-03-14T15:49:15.349Z,28.89
2023-03-14T15:50:15.258Z,28.94
2023-03-14T15:51:15.287Z,28.99
2023-03-14T15:52:15.284Z,28.98
2023-03-14T15:53:15.322Z,28.98
2023-03-14T15:54:15.330Z,28.94
2023-03-14T15:55:15.291Z,28.92
2023-03-14T15:56:15.323Z,28.91
2023-03-14T15:57:15.379Z,28.91
2023-03-14T15:58:15.300Z,28.88
2023-03-14T15:59:15.388Z,28.91
2023-03-14T16:00:15.331Z,28.91
2023-03-14T16:01:15.402Z,28.88
2023-03-14T16:02:15.376Z,28.92
2023-03-14T16:03:15.402Z,28.92
2023-03-14T16:04:15.421Z,28.92
2023-03-14T16:05:15.370Z,28.95
2023-03-14T16:06:15.482Z,28.94
2023-03-14T16:07:15.406Z,28.92
2023-03-14T16:08:15.379Z,28.91
2023-03-14T16:09:15.410Z,28.95
2023-03-14T16:10:15.412Z,28.92
2023-03-14T16:11:15.440Z,28.92
2023-03-14T16:12:15.453Z,28.92
2023-03-14T16:13:15.406Z,28.88
2023-03-14T16:14:15.459Z,28.96
2023-03-14T16:15:15.495Z,28.92
2023-03-14T16:16:15.555Z,28.90
2023-03-14T16:17:15.444Z,28.90
2023-03-14T16:18:22.058Z,28.89
2023-03-14T16:19:16.469Z,28.90
2023-03-14T16:20:15.344Z,28.90
2023-03-14T16:21:15.313Z,28.88
2023-03-14T16:22:15.221Z,28.92
2023-03-14T16:23:15.175Z,28.92
2023-03-14T16:24:15.120Z,28.89
2023-03-14T16:25:15.223Z,28.93
2023-03-14T16:26:14.993Z,28.88
2023-03-14T16:27:14.926Z,28.90
2023-03-14T16:28:14.886Z,28.93
2023-03-14T16:29:14.807Z,28.90
2023-03-14T16:30:14.760Z,28.93
2023-03-14T16:31:14.819Z,28.93
2023-03-14T16:32:14.813Z,28.90
2023-03-14T16:33:14.612Z,28.88
2023-03-14T16:34:14.531Z,28.89
2023-03-14T16:35:14.478Z,28.88
2023-03-14T16:36:14.547Z,28.90
2023-03-14T16:37:14.391Z,28.92
2023-03-14T16:38:14.446Z,28.87
2023-03-14T16:39:14.269Z,28.92
2023-03-14T16:40:14.236Z,28.89
2023-03-14T16:41:14.163Z,28.90
2023-03-14T16:42:14.126Z,28.89
2023-03-14T16:43:16.371Z,28.89
2023-03-14T16:44:14.038Z,28.92
2023-03-14T16:45:14.003Z,28.88
2023-03-14T16:46:13.970Z,28.84
2023-03-14T16:47:13.917Z,28.83
2023-03-14T16:48:13.830Z,28.87
2023-03-14T16:49:13.733Z,28.87
2023-03-14T16:50:13.677Z,28.87
2023-03-14T16:51:13.656Z,28.88
2023-03-14T16:52:13.788Z,28.90
2023-03-14T16:53:13.664Z,28.92
2023-03-14T16:54:13.671Z,28.87
2023-03-14T16:55:13.618Z,28.90
2023-03-14T16:56:13.586Z,28.88
2023-03-14T16:57:13.581Z,28.90
2023-03-14T16:58:13.508Z,28.88
2023-03-14T17:00:13.373Z,28.86
2023-03-14T17:01:13.357Z,28.91
2023-03-14T17:02:13.262Z,28.85
2023-03-14T17:03:13.194Z,28.86
2023-03-14T17:04:13.150Z,28.90
2023-03-14T17:05:13.064Z,28.91
2023-03-14T17:06:13.040Z,28.94
2023-03-14T17:07:13.018Z,28.88
2023-03-14T17:08:12.937Z,28.88
2023-03-14T17:09:12.879Z,28.90
2023-03-14T17:10:12.801Z,28.88
2023-03-14T17:11:12.764Z,28.87
2023-03-14T17:12:12.711Z,28.87
2023-03-14T17:13:12.623Z,28.88
2023-03-14T17:14:12.572Z,28.88
2023-03-14T17:15:12.535Z,28.84
2023-03-14T17:16:12.507Z,28.94
2023-03-14T17:17:12.390Z,28.88
2023-03-14T17:18:12.354Z,28.91
2023-03-14T17:19:12.288Z,28.85
2023-03-14T17:20:12.264Z,28.85
2023-03-14T17:21:12.223Z,28.84
2023-03-14T17:22:23.859Z,28.88
2023-03-14T17:23:13.112Z,28.84
2023-03-14T17:24:14.042Z,28.88
2023-03-14T17:25:11.963Z,28.88
2023-03-14T17:26:11.956Z,28.88
2023-03-14T17:27:11.859Z,28.88
2023-03-14T17:28:11.789Z,28.88
2023-03-14T17:29:11.771Z,28.84
2023-03-14T18:50:08.743Z,28.70
2023-03-14T18:51:08.739Z,28.76
2023-03-14T18:52:08.694Z,28.70
2023-03-14T18:53:08.601Z,28.73
2023-03-14T18:54:10.633Z,28.72
2023-03-14T18:55:08.500Z,28.71
2023-03-14T18:56:08.451Z,28.74
2023-03-14T18:57:08.367Z,28.67
2023-03-14T18:58:08.316Z,28.71
2023-03-14T18:59:08.270Z,28.67
2023-03-14T19:00:08.228Z,28.70
2023-03-14T19:01:08.327Z,28.67
2023-03-14T19:02:08.228Z,28.69
2023-03-14T19:03:08.136Z,28.67
2023-03-14T19:04:10.458Z,28.65
2023-03-14T19:05:08.098Z,28.70
2023-03-14T19:06:08.052Z,28.67
2023-03-14T19:07:07.984Z,28.65
2023-03-14T19:08:07.934Z,28.70
2023-03-14T19:09:07.929Z,28.71
2023-03-14T19:10:07.838Z,28.67
2023-03-14T19:11:07.928Z,28.67
2023-03-14T19:12:07.719Z,28.65
2023-03-14T19:13:07.687Z,28.64
2023-03-14T19:14:07.677Z,28.65
2023-03-14T19:15:07.573Z,28.65
2023-03-14T19:16:07.614Z,28.67
2023-03-14T19:17:07.468Z,28.61
2023-03-14T19:18:07.553Z,28.65
2023-03-14T19:19:07.357Z,28.68
2023-03-14T19:20:07.273Z,28.64
2023-03-14T19:21:07.231Z,28.63
2023-03-14T19:22:07.166Z,28.65
2023-03-14T19:23:07.105Z,28.64
2023-03-14T19:24:07.043Z,28.62
2023-03-14T19:25:07.029Z,28.65
2023-03-14T19:26:06.917Z,28.61
2023-03-14T19:27:06.860Z,28.62
2023-03-14T19:28:06.819Z,28.64
2023-03-14T19:29:06.774Z,28.62
2023-03-14T19:30:06.731Z,28.67
2023-03-14T19:31:06.637Z,28.56
2023-03-14T19:32:06.682Z,28.62
2023-03-14T19:33:06.557Z,28.58
2023-03-14T19:34:06.493Z,28.59
2023-03-14T19:35:06.458Z,28.62
2023-03-14T19:36:06.371Z,28.59
2023-03-14T19:37:06.305Z,28.62
2023-03-14T19:38:06.287Z,28.55
2023-03-14T19:39:06.291Z,28.59
2023-03-14T19:40:06.189Z,28.59
2023-03-14T19:41:06.111Z,28.58
2023-03-14T19:42:06.055Z,28.59
2023-03-14T19:43:05.999Z,28.61
2023-03-14T19:44:05.942Z,28.59
2023-03-14T19:45:05.910Z,28.61
2023-03-14T19:46:05.896Z,28.57
2023-03-14T19:47:05.819Z,28.57
2023-03-14T19:48:05.729Z,28.56
2023-03-14T19:49:05.661Z,28.63
2023-03-14T19:50:05.776Z,28.58
2023-03-14T19:51:05.551Z,28.59
2023-03-14T19:52:05.500Z,28.53
2023-03-14T19:53:05.447Z,28.58
2023-03-14T19:54:05.387Z,28.55
2023-03-14T19:55:05.345Z,28.52
2023-03-14T19:56:08.101Z,28.61
2023-03-14T19:57:05.228Z,28.57
2023-03-14T19:58:05.159Z,28.53
2023-03-14T19:59:05.128Z,28.56
2023-03-14T20:00:05.049Z,28.53
2023-03-14T20:01:05.047Z,28.49
2023-03-14T20:02:04.938Z,28.49
2023-03-14T20:03:04.986Z,28.49
2023-03-14T20:04:04.849Z,28.53
2023-03-14T20:05:07.305Z,28.50
2023-03-14T20:06:04.708Z,28.55
2023-03-14T20:07:04.655Z,28.50
2023-03-14T20:08:04.586Z,28.47
2023-03-14T20:09:04.534Z,28.52
2023-03-14T20:10:04.519Z,28.53
2023-03-14T20:11:04.389Z,28.53
2023-03-14T20:12:04.338Z,28.49
2023-03-14T20:13:12.084Z,28.50
2023-03-14T20:14:05.252Z,28.50
2023-03-14T20:15:04.178Z,28.50
2023-03-14T20:16:04.121Z,28.49
2023-03-14T20:17:04.211Z,28.50
2023-03-14T20:18:04.050Z,28.50
2023-03-14T20:19:04.011Z,28.49
2023-03-14T20:20:03.925Z,28.47
2023-03-14T20:21:03.873Z,28.49
2023-03-14T20:22:04.149Z,28.47
2023-03-14T20:23:03.744Z,28.47
2023-03-14T20:24:03.683Z,28.46
2023-03-14T20:25:03.655Z,28.47
2023-03-14T20:26:03.586Z,28.43
2023-03-14T20:27:03.545Z,28.50
2023-03-14T20:28:03.526Z,28.46
2023-03-14T20:29:03.406Z,28.46
2023-03-14T20:30:03.353Z,28.44
2023-03-14T20:31:03.387Z,28.45
2023-03-14T20:32:03.217Z,28.43
2023-03-14T20:33:03.291Z,28.44
2023-03-14T20:34:03.091Z,28.41
2023-03-14T20:35:03.041Z,28.37
2023-03-14T20:36:03.057Z,28.44
2023-03-14T20:37:02.935Z,28.44
2023-03-14T20:38:02.896Z,28.39
2023-03-14T20:39:02.798Z,28.37
2023-03-14T20:40:02.759Z,28.40
2023-03-14T20:41:02.711Z,28.41
2023-03-14T20:42:02.673Z,28.40
2023-03-14T20:43:02.566Z,28.41
2023-03-14T20:44:02.518Z,28.37
2023-03-14T20:45:02.488Z,28.41
2023-03-14T20:46:02.430Z,28.36
2023-03-14T20:47:02.319Z,28.36
2023-03-14T20:48:02.286Z,28.37
2023-03-14T20:49:02.223Z,28.36
2023-03-14T20:50:02.153Z,28.37
2023-03-14T20:51:02.097Z,28.37
2023-03-14T20:52:02.044Z,28.33
2023-03-14T20:53:02.053Z,28.39
2023-03-14T20:54:01.945Z,28.37
2023-03-14T20:55:01.902Z,28.34
2023-03-14T20:56:01.836Z,28.34
2023-03-14T20:57:01.790Z,28.34
2023-03-14T20:58:01.757Z,28.34
2023-03-14T20:59:01.660Z,28.37
2023-03-14T21:00:01.667Z,28.31
2023-03-14T21:01:01.634Z,28.31
2023-03-14T21:02:01.830Z,28.35
2023-03-14T21:03:01.724Z,28.34
2023-03-14T21:04:01.905Z,28.31
2023-03-14T21:05:01.879Z,28.36
2023-03-14T21:06:01.489Z,28.40
2023-03-14T21:07:01.250Z,28.35
2023-03-14T21:08:01.752Z,28.34
2023-03-14T21:09:03.131Z,28.35
2023-03-14T21:10:01.177Z,28.31
2023-03-14T21:11:01.327Z,28.33
2023-03-14T21:12:00.912Z,28.34
2023-03-14T21:13:00.881Z,28.37
2023-03-14T21:14:01.217Z,28.31
2023-03-14T21:15:00.866Z,28.35
2023-03-14T21:16:01.131Z,28.29
2023-03-14T21:17:01.143Z,28.34
2023-03-14T21:18:00.913Z,28.34
2023-03-14T21:19:00.707Z,28.38
2023-03-14T21:20:00.511Z,28.31
2023-03-14T21:21:00.476Z,28.34
2023-03-14T21:22:00.397Z,28.28
2023-03-14T21:23:00.322Z,28.24
2023-03-14T21:24:00.269Z,28.33
2023-03-14T21:25:00.201Z,28.31
2023-03-14T21:26:00.175Z,28.27
2023-03-14T21:27:00.120Z,28.28
2023-03-14T21:28:00.056Z,28.28
2023-03-14T21:29:00.021Z,28.24
2023-03-14T21:30:00.044Z,28.25
2023-03-14T21:30:59.944Z,28.27
2023-03-14T21:31:59.873Z,28.28
2023-03-14T21:32:59.915Z,28.27
2023-03-14T21:33:59.751Z,28.27
2023-03-14T21:34:59.705Z,28.28
2023-03-14T21:35:59.762Z,28.25
2023-03-14T21:36:59.654Z,28.25
2023-03-14T21:37:59.569Z,28.22
2023-03-14T21:38:59.854Z,28.28
2023-03-14T21:39:59.455Z,28.24
2023-03-14T21:40:59.425Z,28.24
2023-03-14T21:41:59.388Z,28.27
2023-03-14T21:42:59.404Z,28.25
2023-03-14T21:43:59.218Z,28.28
2023-03-14T21:44:59.191Z,28.24
2023-03-14T21:45:59.170Z,28.21
2023-03-14T21:46:59.102Z,28.22
2023-03-14T21:47:59.110Z,28.23
2023-03-14T21:48:58.949Z,28.22
2023-03-14T21:49:58.884Z,28.21
2023-03-14T21:50:58.836Z,28.24
2023-03-14T21:51:58.786Z,28.23
2023-03-14T21:52:58.725Z,28.23
2023-03-14T21:53:58.654Z,28.22
2023-03-14T21:54:58.792Z,28.19
2023-03-14T21:55:58.557Z,28.19
2023-03-14T21:56:58.527Z,28.22
2023-03-14T21:57:58.460Z,28.22
2023-03-14T21:58:58.419Z,28.21